.
WxDataArchive / Data Records for 2011-03-26
2011-03-25 March 2011 2011-03-27

Data Records for Saturday, 26 March 2011

Time	Temp	Chill	HIndex	Humid	Dewpt	 Wind 	HiWind	WindDir	Rain 	Barom 
-----	----	-----	------	-----	-----	------	------	-------	-----	----- 
00:00	26.7	26.7	26.7	56	13.1	0	2	45	0.00	30.155 
00:05	26.6	26.6	26.6	55	12.6	0	1	45	0.00	30.155 
00:10	26.4	26.4	26.4	56	12.9	1	3	45	0.00	30.155 
00:15	26.3	26.3	26.3	56	12.8	0	2	45	0.00	30.156 
00:20	26.3	26.3	26.3	56	12.8	1	5	112	0.00	30.156 
00:25	26.1	26.1	26.1	56	12.6	1	4	112	0.00	30.156 
00:30	26.0	26.0	26.0	56	12.5	0	2	68	0.00	30.159 
00:35	25.8	25.8	25.8	56	12.3	1	5	112	0.00	30.159 
00:40	25.8	25.8	25.8	57	12.7	0	2	112	0.00	30.159 
00:45	25.7	25.7	25.7	57	12.6	1	3	112	0.00	30.159 
00:50	25.6	25.6	25.6	57	12.5	0	4	112	0.00	30.159 
00:55	25.4	25.4	25.4	57	12.3	0	3	90	0.00	30.159 
01:00	25.3	25.3	25.3	58	12.6	1	4	90	0.00	30.163 
01:05	25.3	25.3	25.3	57	12.2	0	3	90	0.00	30.163 
01:10	25.1	25.1	25.1	58	12.4	0	1	90	0.00	30.163 
01:15	25.0	25.0	25.0	58	12.3	0	3	90	0.00	30.162 
01:20	25.0	25.0	25.0	58	12.3	0	2	45	0.00	30.162 
01:25	24.8	24.8	24.8	58	12.1	0	3	45	0.00	30.162 
01:30	24.7	24.7	24.7	59	12.4	0	3	112	0.00	30.161 
01:35	24.7	24.7	24.7	59	12.4	0	3	112	0.00	30.161 
01:40	24.5	24.5	24.5	59	12.3	0	2	112	0.00	30.161 
01:45	24.5	24.5	24.5	59	12.3	0	2	112	0.00	30.163 
01:50	24.4	24.4	24.4	60	12.5	0	3	45	0.00	30.163 
01:55	24.4	24.4	24.4	60	12.5	0	1	90	0.00	30.163 
02:00	24.2	24.2	24.2	61	12.7	1	3	90	0.00	30.169 
02:05	24.1	24.1	24.1	60	12.3	1	5	90	0.00	30.169 
02:10	24.1	24.1	24.1	61	12.6	1	2	112	0.00	30.169 
02:15	23.9	23.9	23.9	61	12.4	1	3	112	0.00	30.171 
02:20	23.9	23.9	23.9	62	12.8	0	2	112	0.00	30.171 
02:25	23.8	23.8	23.8	62	12.7	0	1	112	0.00	30.171 
02:30	23.6	23.6	23.6	62	12.5	0	2	112	0.00	30.171 
02:35	23.5	23.5	23.5	63	12.8	0	2	112	0.00	30.171 
02:40	23.5	23.5	23.5	63	12.8	0	2	112	0.00	30.171 
02:45	23.3	23.3	23.3	63	12.6	0	2	112	0.00	30.173 
02:50	23.2	23.2	23.2	64	12.9	0	1	112	0.00	30.173 
02:55	23.0	23.0	23.0	64	12.7	0	2	112	0.00	30.173 
03:00	23.0	23.0	23.0	65	13.0	0	1	112	0.00	30.180 
03:05	22.9	22.9	22.9	65	12.9	0	1	112	0.00	30.180 
03:10	22.7	22.7	22.7	65	12.7	0	1	112	0.00	30.180 
03:15	22.7	22.7	22.7	66	13.1	0	0	---	0.00	30.179 
03:20	22.5	22.5	22.5	66	12.9	0	0	---	0.00	30.179 
03:25	22.4	22.4	22.4	67	13.1	0	1	112	0.00	30.179 
03:30	22.2	22.2	22.2	67	12.9	0	2	112	0.00	30.183 
03:35	22.2	22.2	22.2	67	12.9	0	0	---	0.00	30.183 
03:40	22.1	22.1	22.1	67	12.8	0	1	112	0.00	30.183 
03:45	22.1	22.1	22.1	67	12.8	0	0	---	0.00	30.183 
03:50	22.1	22.1	22.1	67	12.8	0	0	---	0.00	30.183 
03:55	22.1	22.1	22.1	68	13.2	0	1	112	0.00	30.183 
04:00	22.1	22.1	22.1	68	13.2	0	0	---	0.00	30.179 
04:05	22.1	22.1	22.1	68	13.2	0	1	112	0.00	30.179 
04:10	22.1	22.1	22.1	68	13.2	0	2	112	0.00	30.179 
04:15	22.1	22.1	22.1	68	13.2	0	1	112	0.00	30.175 
04:20	22.1	22.1	22.1	68	13.2	0	3	112	0.00	30.175 
04:25	21.9	21.9	21.9	68	13.0	0	1	112	0.00	30.175 
04:30	21.9	21.9	21.9	69	13.3	0	0	---	0.00	30.175 
04:35	21.8	21.8	21.8	69	13.2	0	0	---	0.00	30.175 
04:40	21.6	21.6	21.6	69	13.0	0	0	---	0.00	30.175 
04:45	21.4	21.4	21.4	70	13.2	0	1	112	0.00	30.176 
04:50	21.4	21.4	21.4	70	13.2	0	0	---	0.00	30.176 
04:55	21.4	21.4	21.4	70	13.2	0	1	112	0.00	30.176 
05:00	21.4	21.4	21.4	71	13.5	0	1	112	0.00	30.181 
05:05	21.4	21.4	21.4	71	13.5	0	0	---	0.00	30.181 
05:10	21.4	21.4	21.4	71	13.5	0	1	112	0.00	30.181 
05:15	21.4	21.4	21.4	71	13.5	0	2	112	0.00	30.181 
05:20	21.6	21.6	21.6	71	13.7	0	3	68	0.00	30.181 
05:25	21.6	21.6	21.6	71	13.7	0	1	68	0.00	30.181 
05:30	21.4	21.4	21.4	72	13.8	0	2	68	0.00	30.177 
05:35	21.4	21.4	21.4	72	13.8	0	1	68	0.00	30.177 
05:40	21.4	21.4	21.4	72	13.8	0	2	68	0.00	30.177 
05:45	21.4	21.4	21.4	73	14.1	0	2	68	0.00	30.175 
05:50	21.6	21.6	21.6	73	14.3	0	2	68	0.00	30.175 
05:55	21.6	21.6	21.6	73	14.3	0	3	68	0.00	30.175 
06:00	21.6	21.6	21.6	74	14.6	1	3	68	0.00	30.173 
06:05	21.6	21.6	21.6	74	14.6	1	3	68	0.00	30.173 
06:10	21.6	21.6	21.6	75	14.9	1	5	90	0.00	30.173 
06:15	21.6	21.6	21.6	75	14.9	1	4	112	0.00	30.172 
06:20	21.6	21.6	21.6	75	14.9	0	2	112	0.00	30.172 
06:25	21.6	21.6	21.6	76	15.2	1	4	90	0.00	30.172 
06:30	21.6	21.6	21.6	76	15.2	1	3	90	0.00	30.172 
06:35	21.6	21.6	21.6	76	15.2	1	2	90	0.00	30.172 
06:40	21.4	21.4	21.4	77	15.3	1	3	90	0.00	30.172 
06:45	21.4	21.4	21.4	77	15.3	1	2	90	0.00	30.172 
06:50	21.4	21.4	21.4	77	15.3	0	2	90	0.00	30.172 
06:55	21.3	21.3	21.3	77	15.2	1	3	90	0.00	30.172 
07:00	21.3	21.3	21.3	78	15.5	1	2	90	0.00	30.173 
07:05	21.1	21.1	21.1	78	15.3	1	2	90	0.00	30.173 
07:10	21.0	21.0	21.0	78	15.2	1	2	90	0.00	30.173 
07:15	20.8	20.8	20.8	78	15.0	0	2	90	0.00	30.176 
07:20	20.8	20.8	20.8	79	15.3	1	2	90	0.00	30.176 
07:25	20.6	20.6	20.6	79	15.1	1	2	90	0.00	30.176 
07:30	20.6	20.6	20.6	79	15.1	1	3	90	0.00	30.178 
07:35	20.6	20.6	20.6	79	15.1	1	3	90	0.00	30.178 
07:40	20.5	20.5	20.5	80	15.3	1	2	90	0.00	30.178 
07:45	20.5	20.5	20.5	80	15.3	0	2	90	0.00	30.179 
07:50	20.5	20.5	20.5	80	15.3	1	3	90	0.00	30.179 
07:55	20.5	20.5	20.5	81	15.6	1	3	90	0.00	30.179 
08:00	20.6	20.6	20.6	81	15.7	1	4	90	0.00	30.185 
08:05	20.8	20.8	20.8	81	15.9	1	4	90	0.00	30.185 
08:10	21.0	21.0	21.0	77	14.9	1	4	90	0.00	30.185 
08:15	21.3	21.3	21.3	81	16.4	1	4	90	0.00	30.193 
08:20	21.6	21.6	21.6	80	16.4	1	4	90	0.00	30.193 
08:25	21.9	21.9	21.9	80	16.7	1	4	90	0.00	30.193 
08:30	22.1	22.1	22.1	79	16.6	2	5	90	0.00	30.193 
08:35	22.4	22.4	22.4	79	16.9	1	5	68	0.00	30.193 
08:40	22.7	22.7	22.7	79	17.2	1	5	68	0.00	30.193 
08:45	23.0	23.0	23.0	78	17.2	0	3	68	0.00	30.205 
08:50	23.6	23.6	23.6	78	17.8	1	4	90	0.00	30.205 
08:55	24.1	24.1	24.1	76	17.7	2	5	90	0.00	30.205 
09:00	24.1	19.0	24.1	74	17.0	4	11	90	0.00	30.200 
09:05	24.2	24.2	24.2	74	17.1	3	7	112	0.00	30.200 
09:10	24.2	24.2	24.2	74	17.1	3	11	112	0.00	30.200 
09:15	24.4	19.3	24.4	73	17.0	4	11	112	0.00	30.190 
09:20	24.8	19.8	24.8	71	16.8	4	10	112	0.00	30.190 
09:25	25.0	18.9	25.0	74	17.9	5	11	90	0.00	30.190 
09:30	25.1	20.1	25.1	70	16.7	4	10	112	0.00	30.191 
09:35	25.3	19.2	25.3	69	16.6	5	9	112	0.00	30.191 
09:40	25.6	20.7	25.6	67	16.2	4	10	112	0.00	30.191 
09:45	25.7	19.7	25.7	65	15.6	5	13	90	0.00	30.184 
09:50	25.8	25.8	25.8	66	16.0	3	10	112	0.00	30.184 
09:55	26.1	21.3	26.1	65	16.0	4	11	90	0.00	30.184 
10:00	26.4	21.6	26.4	65	16.3	4	12	90	0.00	30.176 
10:05	26.6	20.7	26.6	64	16.1	5	11	112	0.00	30.176 
10:10	26.9	21.1	26.9	62	15.6	5	11	112	0.00	30.176 
10:15	26.7	26.7	26.7	62	15.5	3	10	112	0.00	30.174 
10:20	26.7	22.0	26.7	62	15.5	4	9	112	0.00	30.174 
10:25	27.0	21.2	27.0	62	15.7	5	11	112	0.00	30.174 
10:30	27.5	22.9	27.5	63	16.6	4	9	90	0.00	30.176 
10:35	27.8	23.2	27.8	62	16.5	4	9	90	0.00	30.176 
10:40	28.2	28.2	28.2	60	16.1	2	7	90	0.00	30.176 
10:45	29.0	24.6	29.0	58	16.1	4	9	90	0.00	30.171 
10:50	28.7	28.7	28.7	58	15.8	3	8	90	0.00	30.171 
10:55	28.5	24.0	28.5	55	14.4	4	8	90	0.00	30.171 
11:00	28.8	24.4	28.8	55	14.7	4	14	90	0.00	30.177 
11:05	29.3	29.3	29.3	56	15.6	3	10	112	0.00	30.177 
11:10	29.7	25.4	29.7	55	15.5	4	13	112	0.00	30.177 
11:15	29.8	25.5	29.8	52	14.3	4	11	112	0.00	30.185 
11:20	30.0	24.7	30.0	52	14.5	5	12	112	0.00	30.185 
11:25	30.0	24.7	30.0	51	14.1	5	10	112	0.00	30.185 
11:30	30.1	25.9	30.1	53	15.1	4	10	112	0.00	30.188 
11:35	30.7	26.6	30.7	53	15.6	4	9	90	0.00	30.188 
11:40	31.3	31.3	31.3	52	15.7	2	9	90	0.00	30.188 
11:45	31.6	27.6	31.6	48	14.2	4	12	90	0.00	30.171 
11:50	31.8	31.8	31.8	51	15.8	2	11	45	0.00	30.171 
11:55	31.9	28.0	31.9	51	15.9	4	12	112	0.00	30.171 
12:00	32.2	32.2	32.2	52	16.6	3	8	90	0.00	30.181 
12:05	32.5	32.5	32.5	49	15.5	3	9	112	0.00	30.181 
12:10	32.9	32.9	32.9	49	15.9	2	10	112	0.00	30.181 
12:15	32.5	28.7	32.5	47	14.5	4	11	90	0.00	30.186 
12:20	32.7	28.9	32.7	48	15.2	4	11	112	0.00	30.186 
12:25	32.9	32.9	32.9	50	16.3	3	9	68	0.00	30.186 
12:30	32.4	27.5	32.4	44	12.9	5	13	112	0.00	30.183 
12:35	32.1	32.1	32.1	48	14.6	3	10	112	0.00	30.183 
12:40	32.5	32.5	32.5	49	15.5	3	9	112	0.00	30.183 
12:45	32.9	32.9	32.9	50	16.3	2	11	22	0.00	30.170 
12:50	33.4	33.4	33.4	48	15.8	3	10	112	0.00	30.170 
12:55	32.8	28.0	32.8	48	15.3	5	12	112	0.00	30.170 
13:00	32.8	29.0	32.8	47	14.8	4	10	90	0.00	30.172 
13:05	32.7	32.7	32.7	47	14.7	3	11	112	0.00	30.172 
13:10	32.9	32.9	32.9	48	15.4	3	6	112	0.00	30.172 
13:15	33.5	29.8	33.5	46	15.0	4	13	112	0.00	30.165 
13:20	33.1	26.8	33.1	45	14.1	7	14	112	0.00	30.165 
13:25	32.9	28.1	32.9	45	13.9	5	13	112	0.00	30.165 
13:30	33.2	29.5	33.2	45	14.2	4	12	112	0.00	30.159 
13:35	33.4	33.4	33.4	43	13.3	3	12	90	0.00	30.159 
13:40	33.5	28.8	33.5	44	14.0	5	12	112	0.00	30.159 
13:45	33.7	29.1	33.7	46	15.1	5	10	112	0.00	30.154 
13:50	33.4	29.7	33.4	44	13.9	4	11	112	0.00	30.154 
13:55	33.5	29.8	33.5	44	14.0	4	14	112	0.00	30.154 
14:00	34.1	34.1	34.1	45	15.0	3	10	90	0.00	30.145 
14:05	34.1	30.5	34.1	43	14.0	4	12	112	0.00	30.145 
14:10	34.0	34.0	34.0	43	13.9	3	13	90	0.00	30.145 
14:15	34.1	34.1	34.1	46	15.5	3	10	90	0.00	30.143 
14:20	34.1	29.5	34.1	42	13.4	5	12	112	0.00	30.143 
14:25	34.1	34.1	34.1	46	15.5	3	7	112	0.00	30.143 
14:30	34.4	30.8	34.4	42	13.7	4	7	112	0.00	30.144 
14:35	34.7	34.7	34.7	42	14.0	3	10	112	0.00	30.144 
14:40	35.0	35.0	35.0	41	13.7	2	8	22	0.00	30.144 
14:45	35.2	35.2	35.2	42	14.4	3	7	112	0.00	30.139 
14:50	35.3	35.3	35.3	41	14.0	3	9	112	0.00	30.139 
14:55	35.3	35.3	35.3	42	14.5	3	12	112	0.00	30.139 
15:00	35.5	32.1	35.5	40	13.6	4	11	112	0.00	30.136 
15:05	35.2	30.0	35.2	39	12.8	6	11	112	0.00	30.136 
15:10	35.0	35.0	35.0	41	13.7	3	11	90	0.00	30.136 
15:15	35.5	32.1	35.5	41	14.2	4	10	112	0.00	30.128 
15:20	35.3	31.0	35.3	38	12.3	5	12	112	0.00	30.128 
15:25	35.5	35.5	35.5	41	14.2	3	7	112	0.00	30.128 
15:30	35.5	35.5	35.5	42	14.7	3	11	90	0.00	30.124 
15:35	35.5	35.5	35.5	40	13.6	2	5	68	0.00	30.124 
15:40	35.5	35.5	35.5	40	13.6	3	13	90	0.00	30.124 
15:45	35.8	35.8	35.8	42	15.0	3	8	112	0.00	30.118 
15:50	36.0	36.0	36.0	43	15.7	2	6	90	0.00	30.118 
15:55	35.5	29.7	35.5	39	13.0	7	13	112	0.00	30.118 
16:00	35.2	30.0	35.2	39	12.8	6	13	112	0.00	30.113 
16:05	34.9	31.4	34.9	39	12.5	4	11	112	0.00	30.113 
16:10	35.0	31.5	35.0	42	14.3	4	14	112	0.00	30.113 
16:15	35.5	35.5	35.5	42	14.7	2	9	90	0.00	30.113 
16:20	35.6	32.2	35.6	40	13.7	4	12	90	0.00	30.113 
16:25	35.3	31.9	35.3	38	12.3	4	8	112	0.00	30.113 
16:30	34.7	29.4	34.7	40	12.9	6	15	112	0.00	30.116 
16:35	35.0	35.0	35.0	41	13.7	3	10	112	0.00	30.116 
16:40	35.2	35.2	35.2	41	13.9	3	9	90	0.00	30.116 
16:45	35.2	31.8	35.2	40	13.3	4	9	90	0.00	30.111 
16:50	35.2	35.2	35.2	41	13.9	3	15	112	0.00	30.111 
16:55	35.0	31.5	35.0	39	12.6	4	10	90	0.00	30.111 
17:00	34.9	34.9	34.9	41	13.6	3	12	112	0.00	30.112 
17:05	34.9	34.9	34.9	41	13.6	2	6	135	0.00	30.112 
17:10	34.7	34.7	34.7	41	13.4	3	11	112	0.00	30.112 
17:15	34.7	34.7	34.7	40	12.9	3	10	112	0.00	30.114 
17:20	34.4	30.8	34.4	39	12.0	4	9	90	0.00	30.114 
17:25	34.4	34.4	34.4	40	12.6	3	9	112	0.00	30.114 
17:30	34.6	34.6	34.6	40	12.8	3	7	112	0.00	30.117 
17:35	34.4	34.4	34.4	39	12.0	3	10	112	0.00	30.117 
17:40	34.3	34.3	34.3	40	12.5	3	11	112	0.00	30.117 
17:45	34.3	34.3	34.3	40	12.5	3	7	112	0.00	30.123 
17:50	34.3	34.3	34.3	40	12.5	2	9	112	0.00	30.123 
17:55	34.1	34.1	34.1	40	12.3	3	6	45	0.00	30.123 
18:00	34.0	34.0	34.0	40	12.2	3	11	112	0.00	30.124 
18:05	34.0	29.4	34.0	39	11.7	5	12	90	0.00	30.124 
18:10	33.8	33.8	33.8	39	11.5	3	9	112	0.00	30.124 
18:15	33.8	33.8	33.8	40	12.1	3	9	112	0.00	30.116 
18:20	33.7	30.0	33.7	40	12.0	4	12	112	0.00	30.116 
18:25	33.5	33.5	33.5	41	12.4	2	10	22	0.00	30.116 
18:30	33.4	29.7	33.4	41	12.3	4	18	112	0.00	30.116 
18:35	32.9	27.3	32.9	41	11.8	6	14	90	0.00	30.116 
18:40	32.7	27.1	32.7	41	11.6	6	14	112	0.00	30.116 
18:45	32.7	27.9	32.7	42	12.2	5	13	90	0.00	30.111 
18:50	32.5	27.7	32.5	43	12.5	5	13	112	0.00	30.111 
18:55	32.4	28.5	32.4	42	11.9	4	11	90	0.00	30.111 
19:00	32.4	27.5	32.4	44	12.9	5	11	112	0.00	30.114 
19:05	32.2	28.3	32.2	44	12.8	4	12	112	0.00	30.114 
19:10	32.1	32.1	32.1	45	13.2	3	9	112	0.00	30.114 
19:15	31.9	28.0	31.9	46	13.5	4	12	112	0.00	30.114 
19:20	31.6	26.6	31.6	44	12.2	5	10	90	0.00	30.114 
19:25	31.3	26.3	31.3	44	11.9	5	12	90	0.00	30.114 
19:30	31.3	27.3	31.3	46	12.9	4	11	112	0.00	30.115 
19:35	31.2	27.2	31.2	46	12.9	4	13	112	0.00	30.115 
19:40	31.0	26.9	31.0	46	12.7	4	10	90	0.00	30.115 
19:45	30.7	26.6	30.7	45	11.9	4	11	112	0.00	30.117 
19:50	30.4	25.2	30.4	44	11.1	5	10	112	0.00	30.117 
19:55	30.1	25.9	30.1	46	11.8	4	10	112	0.00	30.117 
20:00	30.1	24.8	30.1	46	11.8	5	10	90	0.00	30.121 
20:05	30.0	30.0	30.0	47	12.2	3	8	90	0.00	30.121 
20:10	30.0	30.0	30.0	48	12.7	2	6	112	0.00	30.121 
20:15	29.8	25.5	29.8	46	11.6	4	13	90	0.00	30.110 
20:20	29.7	25.4	29.7	46	11.5	4	11	90	0.00	30.110 
20:25	29.5	29.5	29.5	46	11.3	3	12	90	0.00	30.110 
20:30	29.5	29.5	29.5	46	11.3	3	10	112	0.00	30.110 
20:35	29.4	24.0	29.4	46	11.2	5	10	90	0.00	30.110 
20:40	29.3	25.0	29.3	46	11.1	4	9	90	0.00	30.110 
20:45	29.3	29.3	29.3	47	11.6	3	10	90	0.00	30.112 
20:50	29.3	29.3	29.3	47	11.6	3	11	90	0.00	30.112 
20:55	29.1	29.1	29.1	48	11.9	3	7	90	0.00	30.112 
21:00	29.1	24.7	29.1	48	11.9	4	7	112	0.00	30.113 
21:05	29.0	29.0	29.0	48	11.8	3	9	90	0.00	30.113 
21:10	29.0	24.6	29.0	47	11.3	4	9	90	0.00	30.113 
21:15	29.0	29.0	29.0	48	11.8	2	6	90	0.00	30.119 
21:20	29.0	24.6	29.0	48	11.8	4	10	90	0.00	30.119 
21:25	28.8	28.8	28.8	49	12.1	3	10	90	0.00	30.119 
21:30	28.8	24.4	28.8	49	12.1	4	7	90	0.00	30.130 
21:35	28.7	28.7	28.7	50	12.4	3	7	90	0.00	30.130 
21:40	28.7	28.7	28.7	51	12.9	3	7	90	0.00	30.130 
21:45	28.5	28.5	28.5	52	13.1	2	9	112	0.00	30.132 
21:50	28.5	28.5	28.5	52	13.1	2	4	112	0.00	30.132 
21:55	28.4	28.4	28.4	53	13.5	3	7	90	0.00	30.132 
22:00	28.2	28.2	28.2	54	13.7	3	6	90	0.00	30.129 
22:05	28.1	23.6	28.1	55	14.0	4	11	90	0.00	30.129 
22:10	27.9	27.9	27.9	56	14.3	3	8	90	0.00	30.129 
22:15	27.8	27.8	27.8	57	14.6	3	7	112	0.00	30.134 
22:20	27.6	27.6	27.6	58	14.8	3	10	90	0.00	30.134 
22:25	27.5	27.5	27.5	58	14.7	2	7	112	0.00	30.134 
22:30	27.5	27.5	27.5	59	15.1	2	5	112	0.00	30.139 
22:35	27.3	27.3	27.3	60	15.3	2	5	112	0.00	30.139 
22:40	27.3	27.3	27.3	60	15.3	1	6	112	0.00	30.139 
22:45	27.3	27.3	27.3	60	15.3	2	5	112	0.00	30.151 
22:50	27.3	27.3	27.3	60	15.3	1	4	90	0.00	30.151 
22:55	27.3	27.3	27.3	60	15.3	3	7	90	0.00	30.151 
23:00	27.3	27.3	27.3	61	15.7	1	2	112	0.00	30.156 
23:05	27.3	27.3	27.3	60	15.3	2	8	112	0.00	30.156 
23:10	27.2	27.2	27.2	61	15.6	2	10	112	0.00	30.156 
23:15	27.2	27.2	27.2	61	15.6	2	5	112	0.00	30.154 
23:20	27.0	27.0	27.0	61	15.4	1	4	90	0.00	30.154 
23:25	27.0	27.0	27.0	62	15.7	1	4	90	0.00	30.154 
23:30	26.9	26.9	26.9	62	15.6	1	4	112	0.00	30.149 
23:35	26.9	26.9	26.9	62	15.6	1	4	112	0.00	30.149 
23:40	26.9	26.9	26.9	63	16.0	2	4	90	0.00	30.149 
23:45	26.9	26.9	26.9	63	16.0	1	5	90	0.00	30.150 
23:50	26.9	26.9	26.9	62	15.6	2	6	112	0.00	30.150 
23:55	26.9	26.9	26.9	63	16.0	1	4	90	0.00	30.150 

CoCoRaHS
IN-AL-39
A2 Web Hosting
Creative Commons License
GoDaddy
search engine by freefind advanced

loaded 2018-11-16 00:59:58 • last modified 2010-11-18 10:43:29
Privacy PolicyDisclaimer
• wx.awcolley.com is powered by PmWiki v.2002016 •
• all content (unless otherwise noted) © 2018 A W Colley